Time;durP1;ratioP1;P1;durP2;ratioP2;P2;SDS_P1;SDS_P2;PMS_P1;PMS_P2;Temp;Humidity;BMP_temperature;BMP_pressure;BME280_temperature;BME280_humidity;BME280_pressure;Samples;Min_cycle;Max_cycle;Signal;HPM_P1;HPM_P2
2022/04/15 00:00:41;;;;;;;14.88;8.05;;;5.80;99.90;;;;;;4993881;28;20045;-39
2022/04/15 00:03:07;;;;;;;14.73;7.63;;;;;;;;;;4993567;28;20041;-40
2022/04/15 00:05:37;;;;;;;13.57;7.70;;;5.80;99.90;;;;;;4992604;28;20717;-39
2022/04/15 00:08:06;;;;;;;15.07;7.97;;;6.00;99.90;;;;;;4976052;28;20049;-39
2022/04/15 00:10:34;;;;;;;12.70;7.88;;;6.00;99.90;;;;;;4993242;28;20049;-39
2022/04/15 00:13:00;;;;;;;18.40;8.15;;;;;;;;;;4992980;28;20345;-39
2022/04/15 00:15:27;;;;;;;14.40;9.25;;;;;;;;;;4993092;28;20037;-39
2022/04/15 00:17:55;;;;;;;15.38;9.07;;;6.10;99.90;;;;;;4993088;28;20373;-40
2022/04/15 00:20:21;;;;;;;15.52;7.57;;;6.40;99.90;;;;;;4998806;28;21413;-40
2022/04/15 00:22:48;;;;;;;14.07;7.97;;;;;;;;;;4999227;28;20068;-41
2022/04/15 00:25:14;;;;;;;15.98;7.65;;;6.40;99.90;;;;;;4997995;28;20502;-41
2022/04/15 00:27:40;;;;;;;13.38;6.85;;;6.40;99.90;;;;;;4995400;28;20050;-42
2022/04/15 00:30:08;;;;;;;11.23;6.55;;;6.60;99.90;;;;;;4995086;28;20581;-41
2022/04/15 00:32:34;;;;;;;11.63;6.68;;;6.40;99.90;;;;;;4999117;28;20183;-43
2022/04/15 00:34:59;;;;;;;11.82;7.05;;;6.70;99.90;;;;;;4998036;28;20124;-41
2022/04/15 00:37:25;;;;;;;15.23;7.22;;;6.70;99.90;;;;;;4999070;28;20133;-42
2022/04/15 00:39:53;;;;;;;13.07;6.93;;;6.70;99.90;;;;;;4998909;28;20160;-42
2022/04/15 00:42:22;;;;;;;11.73;6.40;;;6.90;99.90;;;;;;4999923;28;20121;-41
2022/04/15 00:44:53;;;;;;;14.23;5.85;;;7.00;99.90;;;;;;4998973;28;20080;-44
2022/04/15 00:47:31;;;;;;;13.45;6.93;;;6.90;99.90;;;;;;4997739;28;20029;-44
2022/04/15 00:49:58;;;;;;;10.60;6.40;;;6.90;99.90;;;;;;4999341;28;20108;-44
2022/04/15 00:52:26;;;;;;;12.90;6.50;;;7.00;99.90;;;;;;4999574;28;20120;-44
2022/04/15 00:54:54;;;;;;;12.95;7.40;;;7.10;99.90;;;;;;4998225;28;20116;-45
2022/04/15 00:57:25;;;;;;;13.70;6.50;;;6.90;99.90;;;;;;4997772;28;20096;-42
2022/04/15 00:59:54;;;;;;;16.52;7.07;;;7.00;99.90;;;;;;4991501;28;20045;-45
2022/04/15 01:02:21;;;;;;;10.05;6.82;;;7.00;99.90;;;;;;4999248;28;20132;-44
2022/04/15 01:04:50;;;;;;;14.95;6.70;;;7.10;99.90;;;;;;4981034;28;20104;-43
2022/04/15 01:07:19;;;;;;;12.98;6.95;;;7.10;99.90;;;;;;4999200;28;20056;-44
2022/04/15 01:09:50;;;;;;;10.57;5.60;;;7.20;99.90;;;;;;4998906;28;20053;-43
2022/04/15 01:12:20;;;;;;;10.60;6.43;;;7.10;99.90;;;;;;4998900;28;20052;-42
2022/04/15 01:14:46;;;;;;;14.63;7.18;;;7.20;99.90;;;;;;4999084;28;20146;-44
2022/04/15 01:17:12;;;;;;;14.38;6.50;;;7.30;99.90;;;;;;4998260;28;20038;-45
2022/04/15 01:19:40;;;;;;;17.98;7.03;;;7.20;99.90;;;;;;4998689;28;20096;-42
2022/04/15 01:22:13;;;;;;;13.55;6.50;;;7.40;99.90;;;;;;4998268;28;20057;-43
2022/04/15 01:24:38;;;;;;;14.75;6.90;;;7.20;99.90;;;;;;4999248;28;20046;-42
2022/04/15 01:27:06;;;;;;;14.90;7.47;;;7.30;99.90;;;;;;4999122;28;20329;-43
2022/04/15 01:29:38;;;;;;;10.43;5.85;;;7.30;99.90;;;;;;4989092;28;20048;-43
2022/04/15 01:32:09;;;;;;;11.90;6.63;;;7.30;99.90;;;;;;4993975;28;20101;-42
2022/04/15 01:34:35;;;;;;;15.23;6.55;;;7.30;99.90;;;;;;4995395;28;20046;-44
2022/04/15 01:37:01;;;;;;;15.85;7.07;;;7.40;99.90;;;;;;4978247;28;20048;-43
2022/04/15 01:39:28;;;;;;;12.70;6.40;;;7.20;99.90;;;;;;4995846;28;20045;-42
2022/04/15 01:41:54;;;;;;;14.25;6.28;;;7.40;99.90;;;;;;4996228;28;20042;-44
2022/04/15 01:44:19;;;;;;;10.95;5.75;;;7.40;99.90;;;;;;4997619;28;20633;-43
2022/04/15 01:46:45;;;;;;;15.43;6.90;;;7.50;99.90;;;;;;4994959;28;20089;-43
2022/04/15 01:49:11;;;;;;;13.35;6.95;;;8.10;99.90;;;;;;4995793;28;20038;-45
2022/04/15 01:51:37;;;;;;;11.43;6.57;;;7.50;99.90;;;;;;4995499;28;20034;-46
2022/04/15 01:54:03;;;;;;;17.75;7.15;;;7.60;99.90;;;;;;4995789;28;20038;-44
2022/04/15 01:56:29;;;;;;;14.77;7.13;;;7.50;99.90;;;;;;4994356;28;20034;-44
2022/04/15 01:58:55;;;;;;;15.35;6.57;;;8.70;99.90;;;;;;4987985;28;20046;-42
2022/04/15 02:01:24;;;;;;;13.65;7.38;;;7.60;99.90;;;;;;4995153;28;20044;-43
2022/04/15 02:03:49;;;;;;;13.00;7.00;;;7.50;99.90;;;;;;4994423;28;20049;-44
2022/04/15 02:06:15;;;;;;;17.83;8.13;;;7.60;99.90;;;;;;4995125;28;20042;-43
2022/04/15 02:08:44;;;;;;;14.63;6.70;;;7.60;99.90;;;;;;4992826;28;20502;-43
2022/04/15 02:11:10;;;;;;;19.58;6.30;;;7.60;99.90;;;;;;4994393;28;20045;-43
2022/04/15 02:13:35;;;;;;;15.10;5.80;;;7.60;99.90;;;;;;4996516;28;20615;-43
2022/04/15 02:16:03;;;;;;;12.57;4.88;;;8.20;99.90;;;;;;4995198;28;20049;-42
2022/04/15 02:18:29;;;;;;;16.45;6.15;;;7.70;99.90;;;;;;4994325;28;20050;-43
2022/04/15 02:20:55;;;;;;;15.30;5.95;;;8.70;99.90;;;;;;4994450;28;20042;-43
2022/04/15 02:23:20;;;;;;;13.18;4.18;;;7.80;99.90;;;;;;4994582;28;20045;-43
2022/04/15 02:25:46;;;;;;;13.07;4.95;;;7.80;99.90;;;;;;4995131;28;20042;-43
2022/04/15 02:28:11;;;;;;;9.57;4.50;;;8.40;99.90;;;;;;4987277;28;20498;-47
2022/04/15 02:30:37;;;;;;;15.02;4.70;;;6.20;99.90;;;;;;4993892;28;20038;-45
2022/04/15 02:33:03;;;;;;;14.55;4.50;;;7.80;99.90;;;;;;4993783;28;20052;-43
2022/04/15 02:35:28;;;;;;;8.90;4.43;;;7.80;99.90;;;;;;4993940;28;20415;-42
2022/04/15 02:37:56;;;;;;;11.82;4.75;;;7.90;99.90;;;;;;4976118;28;20396;-44
2022/04/15 02:40:22;;;;;;;15.32;5.90;;;8.00;99.90;;;;;;4995431;28;20045;-44
2022/04/15 02:42:48;;;;;;;13.75;6.10;;;7.90;99.90;;;;;;4992593;28;20053;-44
2022/04/15 02:45:13;;;;;;;18.90;6.72;;;7.90;99.90;;;;;;4995127;28;20042;-45
2022/04/15 02:47:40;;;;;;;17.75;6.93;;;7.80;99.90;;;;;;4993562;28;20892;-42
2022/04/15 02:50:07;;;;;;;10.23;6.05;;;7.80;99.90;;;;;;4995522;28;20045;-43
2022/04/15 02:52:34;;;;;;;13.48;6.15;;;7.80;99.90;;;;;;4993361;28;20966;-42
2022/04/15 02:55:00;;;;;;;13.05;4.97;;;7.90;99.90;;;;;;4993849;28;20038;-45
2022/04/15 02:57:26;;;;;;;10.45;5.60;;;7.80;99.90;;;;;;4992686;28;20640;-43
2022/04/15 02:59:53;;;;;;;10.88;5.00;;;7.80;99.90;;;;;;4987106;28;20041;-45
2022/04/15 03:02:19;;;;;;;9.95;5.35;;;7.90;99.90;;;;;;4994248;28;20046;-44
2022/04/15 03:04:45;;;;;;;10.07;4.85;;;7.80;99.90;;;;;;4993423;28;20529;-44
2022/04/15 03:07:12;;;;;;;11.23;5.82;;;7.80;99.90;;;;;;4994701;28;20116;-45
2022/04/15 03:09:38;;;;;;;12.07;5.57;;;7.80;99.90;;;;;;4993807;28;20133;-44
2022/04/15 03:12:04;;;;;;;12.70;5.65;;;7.90;99.90;;;;;;4994182;28;20471;-43
2022/04/15 03:14:31;;;;;;;13.75;7.22;;;7.90;99.90;;;;;;4994543;28;20466;-44
2022/04/15 03:16:57;;;;;;;13.18;8.35;;;8.10;99.90;;;;;;4994530;28;20123;-45
2022/04/15 03:19:23;;;;;;;18.02;10.45;;;9.00;99.90;;;;;;4975494;28;20065;-42
2022/04/15 03:21:50;;;;;;;25.70;13.55;;;6.50;99.90;;;;;;4992465;28;20390;-44
2022/04/15 03:24:16;;;;;;;23.92;15.00;;;7.80;99.90;;;;;;4993218;28;20058;-42
2022/04/15 03:26:41;;;;;;;25.70;15.95;;;8.00;99.90;;;;;;4993899;28;20045;-45
2022/04/15 03:29:07;;;;;;;23.58;17.55;;;7.70;99.90;;;;;;4984508;28;20050;-46
2022/04/15 03:31:33;;;;;;;24.75;18.02;;;7.70;99.90;;;;;;4993067;28;20188;-42
2022/04/15 03:33:58;;;;;;;19.65;15.60;;;7.90;99.90;;;;;;4993193;28;20529;-43
2022/04/15 03:36:26;;;;;;;20.17;16.50;;;7.70;99.90;;;;;;4992005;28;20821;-42
2022/04/15 03:38:52;;;;;;;17.67;14.52;;;7.60;99.90;;;;;;4992450;28;20034;-44
2022/04/15 03:41:18;;;;;;;16.70;13.43;;;7.70;99.90;;;;;;4992751;28;20048;-44
2022/04/15 03:43:43;;;;;;;16.70;11.93;;;7.50;99.90;;;;;;4993591;28;20037;-43
2022/04/15 03:46:09;;;;;;;15.93;10.00;;;8.40;99.90;;;;;;4993930;28;20077;-43
2022/04/15 03:48:35;;;;;;;14.80;9.95;;;7.60;99.90;;;;;;4991736;28;20542;-44
2022/04/15 03:51:03;;;;;;;14.27;9.48;;;7.40;99.90;;;;;;4992132;28;20087;-43
2022/04/15 03:53:28;;;;;;;10.75;8.80;;;7.50;99.90;;;;;;4993260;28;20038;-44
2022/04/15 03:55:54;;;;;;;11.25;8.68;;;7.60;99.90;;;;;;4991959;28;20064;-44
2022/04/15 03:58:20;;;;;;;11.65;8.63;;;;;;;;;;4983911;28;21550;-43
2022/04/15 04:00:46;;;;;;;11.10;7.05;;;7.50;99.90;;;;;;4992280;28;20050;-42
2022/04/15 04:03:14;;;;;;;11.75;6.90;;;;;;;;;;4991582;28;20046;-44
2022/04/15 04:05:39;;;;;;;10.32;6.78;;;7.30;99.90;;;;;;4991935;28;20061;-42
2022/04/15 04:08:05;;;;;;;12.75;6.90;;;7.20;99.90;;;;;;4975482;28;20042;-42
2022/04/15 04:10:33;;;;;;;8.07;6.13;;;7.40;99.90;;;;;;4993298;28;20103;-42
2022/04/15 04:12:59;;;;;;;9.00;6.00;;;7.20;99.90;;;;;;4992414;28;20056;-44
2022/04/15 04:15:25;;;;;;;9.82;6.47;;;7.40;99.90;;;;;;4993446;28;20176;-43
2022/04/15 04:17:50;;;;;;;10.57;7.18;;;7.20;99.90;;;;;;4992892;28;20398;-41
2022/04/15 04:20:17;;;;;;;9.98;6.38;;;7.20;99.90;;;;;;4974863;28;20809;-41
2022/04/15 04:22:43;;;;;;;8.82;6.03;;;7.20;99.90;;;;;;4993471;28;20069;-41
2022/04/15 04:25:09;;;;;;;8.80;5.22;;;7.20;99.90;;;;;;4992504;28;20058;-44
2022/04/15 04:27:40;;;;;;;8.85;6.65;;;7.00;99.90;;;;;;4990982;28;20057;-42
2022/04/15 04:30:08;;;;;;;9.23;5.88;;;7.20;99.90;;;;;;4986131;28;20395;-42
2022/04/15 04:32:34;;;;;;;10.20;6.65;;;;;;;;;;4992719;28;20124;-47
2022/04/15 04:34:59;;;;;;;11.65;5.63;;;7.00;99.90;;;;;;4993709;28;20049;-44
2022/04/15 04:37:25;;;;;;;8.32;5.47;;;;;;;;;;4991830;28;20077;-44
2022/04/15 04:39:51;;;;;;;8.50;5.63;;;;;;;;;;4974302;28;20121;-43
2022/04/15 04:42:20;;;;;;;10.60;5.90;;;7.10;99.90;;;;;;4992316;28;20281;-42
2022/04/15 04:44:46;;;;;;;7.95;5.50;;;;;;;;;;4973543;28;20054;-42
2022/04/15 04:47:12;;;;;;;7.15;5.07;;;7.10;99.90;;;;;;4991981;28;20462;-43
2022/04/15 04:49:40;;;;;;;7.22;4.75;;;7.00;99.90;;;;;;4991663;28;20060;-41
2022/04/15 04:52:06;;;;;;;7.82;4.85;;;7.10;99.90;;;;;;4991916;28;20041;-43
2022/04/15 04:54:32;;;;;;;9.40;5.00;;;7.10;99.90;;;;;;4992857;28;20054;-42
2022/04/15 04:57:00;;;;;;;6.05;4.53;;;7.00;99.90;;;;;;4990735;28;20048;-42
2022/04/15 04:59:32;;;;;;;11.63;7.70;;;7.10;99.90;;;;;;4966514;28;20160;-44
2022/04/15 05:01:58;;;;;;;11.95;8.45;;;;;;;;;;4991730;28;20099;-41
2022/04/15 05:04:24;;;;;;;9.32;6.68;;;7.00;99.90;;;;;;4992513;28;20450;-42
2022/04/15 05:06:53;;;;;;;6.47;5.15;;;7.10;99.90;;;;;;4996251;28;20105;-42
2022/04/15 05:09:20;;;;;;;7.68;5.47;;;7.00;99.90;;;;;;4995174;28;20477;-41
2022/04/15 05:11:46;;;;;;;7.90;5.35;;;7.10;99.90;;;;;;4995276;28;20041;-42
2022/04/15 05:14:12;;;;;;;8.18;4.93;;;;;;;;;;4995464;28;20064;-41
2022/04/15 05:16:38;;;;;;;7.57;5.25;;;;;;;;;;4997236;28;20048;-42
2022/04/15 05:19:04;;;;;;;7.07;4.05;;;7.10;99.90;;;;;;4995136;28;20126;-41
2022/04/15 05:21:30;;;;;;;7.05;3.38;;;7.10;99.90;;;;;;4993454;28;20060;-41
2022/04/15 05:23:56;;;;;;;5.45;2.60;;;;;;;;;;4976723;28;20062;-45
2022/04/15 05:26:22;;;;;;;6.72;2.70;;;;;;;;;;4995439;28;20473;-42
2022/04/15 05:28:47;;;;;;;5.10;3.05;;;7.20;99.90;;;;;;4968337;28;20469;-42
2022/04/15 05:31:13;;;;;;;7.05;3.03;;;7.10;99.90;;;;;;4994386;28;20073;-45
2022/04/15 05:33:39;;;;;;;7.28;2.90;;;7.10;99.90;;;;;;4995477;28;20065;-43
2022/04/15 05:36:05;;;;;;;6.35;2.30;;;7.00;99.90;;;;;;4994097;28;20214;-41
2022/04/15 05:38:31;;;;;;;6.47;2.60;;;;;;;;;;4984939;28;20485;-43
2022/04/15 05:40:57;;;;;;;5.75;2.97;;;7.10;99.90;;;;;;4992145;28;20053;-42
2022/04/15 05:43:23;;;;;;;8.80;2.90;;;;;;;;;;4995048;28;20300;-43
2022/04/15 05:45:48;;;;;;;6.88;3.97;;;7.10;99.90;;;;;;4994076;28;20445;-45
2022/04/15 05:48:14;;;;;;;6.50;3.67;;;;;;;;;;4994805;28;20092;-44
2022/04/15 05:50:40;;;;;;;7.47;3.78;;;7.10;99.90;;;;;;4995226;28;20091;-43
2022/04/15 05:53:06;;;;;;;5.63;3.60;;;7.00;99.90;;;;;;4994207;28;20046;-42
2022/04/15 05:55:33;;;;;;;6.90;4.22;;;7.00;99.90;;;;;;4993515;28;20129;-42
2022/04/15 05:57:59;;;;;;;7.82;3.90;;;;;;;;;;4971170;28;20058;-41
2022/04/15 06:00:24;;;;;;;9.35;4.07;;;7.20;99.90;;;;;;4992242;28;20034;-41
2022/04/15 06:02:50;;;;;;;6.47;4.35;;;7.10;99.90;;;;;;4994298;28;20069;-43
2022/04/15 06:05:16;;;;;;;6.90;3.80;;;7.10;99.90;;;;;;4993885;28;20135;-43
2022/04/15 06:07:43;;;;;;;7.28;4.20;;;7.10;99.90;;;;;;4994726;28;20081;-41
2022/04/15 06:10:09;;;;;;;6.28;4.28;;;7.10;99.90;;;;;;4993492;28;20124;-45
2022/04/15 06:12:57;;;;;;;7.20;4.68;;;6.90;99.90;;;;;;4993712;28;20528;-42
2022/04/15 06:15:31;;;;;;;9.45;5.45;;;5.70;99.90;;;;;;4994227;28;20515;-44
2022/04/15 06:18:00;;;;;;;7.65;4.78;;;7.00;99.90;;;;;;4993163;28;20042;-40
2022/04/15 06:20:27;;;;;;;10.75;5.80;;;7.00;99.90;;;;;;4993714;28;20128;-42
2022/04/15 06:22:53;;;;;;;8.02;5.45;;;;;;;;;;4993809;28;20049;-42
2022/04/15 06:25:19;;;;;;;8.65;6.82;;;7.10;99.90;;;;;;4993080;28;20161;-41
2022/04/15 06:27:46;;;;;;;9.18;6.57;;;;;;;;;;4992853;28;20066;-44
2022/04/15 06:30:12;;;;;;;9.30;5.50;;;7.00;99.90;;;;;;4993890;28;20109;-43
2022/04/15 06:32:37;;;;;;;8.48;6.13;;;7.10;99.90;;;;;;4975996;28;20088;-42
2022/04/15 06:35:04;;;;;;;9.38;5.85;;;7.20;99.90;;;;;;4992977;28;20077;-44
2022/04/15 06:37:32;;;;;;;8.00;5.65;;;7.10;99.90;;;;;;4993307;28;20410;-42
2022/04/15 06:39:58;;;;;;;11.32;6.80;;;7.30;99.90;;;;;;4991968;28;20033;-42
2022/04/15 06:42:24;;;;;;;10.85;6.72;;;7.30;99.90;;;;;;4992355;28;20057;-42
2022/04/15 06:44:52;;;;;;;9.38;6.28;;;7.30;99.90;;;;;;4992628;28;20053;-41
2022/04/15 06:47:18;;;;;;;13.98;8.93;;;7.30;99.90;;;;;;4976776;28;20058;-42
2022/04/15 06:49:45;;;;;;;14.98;10.15;;;7.40;99.90;;;;;;4975218;28;20057;-43
2022/04/15 06:52:17;;;;;;;14.18;9.05;;;7.40;99.90;;;;;;4993051;28;20246;-42
2022/04/15 06:54:43;;;;;;;13.63;8.82;;;7.30;99.90;;;;;;4992293;28;20053;-42
2022/04/15 06:57:09;;;;;;;14.20;9.25;;;7.40;99.90;;;;;;4992722;28;20049;-42
2022/04/15 06:59:35;;;;;;;15.63;9.80;;;7.50;99.90;;;;;;4974676;28;20447;-41
2022/04/15 07:02:02;;;;;;;12.63;9.15;;;7.50;99.90;;;;;;4990850;28;20061;-42
2022/04/15 07:04:28;;;;;;;16.23;9.05;;;7.80;99.90;;;;;;4990368;28;20168;-42
2022/04/15 07:06:56;;;;;;;12.57;9.15;;;7.80;99.90;;;;;;4991849;28;20048;-42
2022/04/15 07:09:21;;;;;;;13.77;9.45;;;7.60;99.90;;;;;;4991553;28;20648;-42
2022/04/15 07:11:47;;;;;;;15.32;12.23;;;7.80;99.90;;;;;;4993936;28;20045;-43
2022/04/15 07:14:13;;;;;;;15.98;10.93;;;7.80;99.90;;;;;;4992378;28;20045;-42
2022/04/15 07:16:38;;;;;;;17.90;9.40;;;7.80;99.90;;;;;;4990255;28;20044;-42
2022/04/15 07:19:05;;;;;;;12.77;9.00;;;7.70;99.90;;;;;;4974202;28;20056;-41
2022/04/15 07:21:34;;;;;;;19.95;10.90;;;8.90;99.90;;;;;;4992376;28;20456;-41
2022/04/15 07:23:59;;;;;;;19.92;10.75;;;8.00;99.90;;;;;;4992914;28;20050;-41
2022/04/15 07:26:25;;;;;;;15.38;10.00;;;8.10;99.90;;;;;;4991495;28;20524;-40
2022/04/15 07:28:51;;;;;;;15.13;10.88;;;8.00;99.90;;;;;;4989232;28;20038;-41
2022/04/15 07:31:16;;;;;;;18.60;9.43;;;8.20;99.90;;;;;;4992466;28;20042;-42
2022/04/15 07:33:42;;;;;;;21.05;10.07;;;8.30;99.90;;;;;;4990564;28;20034;-42
2022/04/15 07:36:42;;;;;;;16.40;9.02;;;8.50;99.90;;;;;;4989659;28;20042;-43
2022/04/15 07:38:54;;;;;;;16.70;9.13;;;8.90;99.90;;;;;;4990646;28;20104;-43
2022/04/15 07:41:19;;;;;;;16.38;8.30;;;9.70;99.90;;;;;;4989546;28;20136;-40
2022/04/15 07:43:47;;;;;;;16.85;9.85;;;10.10;99.90;;;;;;4990077;28;20368;-42
2022/04/15 07:46:13;;;;;;;11.07;8.02;;;10.60;99.90;;;;;;4989841;28;20144;-41
2022/04/15 07:48:39;;;;;;;11.60;6.85;;;10.30;99.90;;;;;;4992679;28;20037;-45
2022/04/15 07:51:04;;;;;;;16.00;7.88;;;9.40;99.90;;;;;;4992313;28;20532;-42
2022/04/15 07:53:32;;;;;;;18.45;7.63;;;9.40;99.90;;;;;;4993239;28;20561;-42
2022/04/15 07:55:58;;;;;;;15.82;6.75;;;10.10;99.90;;;;;;4991237;28;20056;-41
2022/04/15 07:58:24;;;;;;;18.20;7.88;;;10.50;99.90;;;;;;4992681;28;20038;-42
2022/04/15 08:00:51;;;;;;;13.25;7.05;;;9.10;99.90;;;;;;4990590;28;20049;-42
2022/04/15 08:03:20;;;;;;;13.73;6.38;;;9.20;99.90;;;;;;4988827;28;20330;-43
2022/04/15 08:05:49;;;;;;;13.55;7.03;;;9.30;99.90;;;;;;4973575;28;20080;-42
2022/04/15 08:08:16;;;;;;;12.50;6.90;;;9.10;99.90;;;;;;4992602;28;20129;-42
2022/04/15 08:10:42;;;;;;;11.07;5.97;;;10.20;99.90;;;;;;4993230;28;20049;-41
2022/04/15 08:13:08;;;;;;;11.32;7.03;;;9.20;99.90;;;;;;4992691;28;20042;-41
2022/04/15 08:15:35;;;;;;;15.27;6.55;;;10.20;99.90;;;;;;4992322;28;20465;-40
2022/04/15 08:18:01;;;;;;;12.63;6.95;;;9.20;99.90;;;;;;4976389;28;21013;-40
2022/04/15 08:20:27;;;;;;;15.23;5.63;;;9.10;99.90;;;;;;4992639;28;20038;-42
2022/04/15 08:22:55;;;;;;;12.13;6.63;;;9.20;99.90;;;;;;4992046;28;20640;-40
2022/04/15 08:25:21;;;;;;;12.68;6.50;;;9.10;99.90;;;;;;4992563;28;20130;-40
2022/04/15 08:27:46;;;;;;;15.05;5.45;;;9.20;99.90;;;;;;4991411;28;20221;-40
2022/04/15 08:30:12;;;;;;;10.82;5.05;;;9.20;99.90;;;;;;4992309;28;20038;-40
2022/04/15 08:32:38;;;;;;;17.30;6.75;;;9.40;99.90;;;;;;4991491;28;20042;-40
2022/04/15 08:35:06;;;;;;;9.73;4.55;;;9.50;99.90;;;;;;4993184;28;20069;-40
2022/04/15 08:37:33;;;;;;;12.95;5.35;;;9.50;99.90;;;;;;4991214;28;20054;-42
2022/04/15 08:40:00;;;;;;;13.00;5.00;;;9.50;99.90;;;;;;4992580;28;20048;-41
2022/04/15 08:42:26;;;;;;;13.90;4.93;;;9.70;99.90;;;;;;4995456;28;20046;-41
2022/04/15 08:44:56;;;;;;;8.32;4.28;;;10.20;99.90;;;;;;4977732;28;20816;-40
2022/04/15 08:47:21;;;;;;;11.32;4.55;;;9.50;99.90;;;;;;4996264;28;20748;-41
2022/04/15 08:49:48;;;;;;;12.38;5.80;;;9.50;99.90;;;;;;4995886;28;20094;-41
2022/04/15 08:52:17;;;;;;;12.23;5.20;;;9.50;99.90;;;;;;4994898;28;20037;-40
2022/04/15 08:54:44;;;;;;;9.57;4.75;;;9.80;99.90;;;;;;4995480;28;20290;-41
2022/04/15 08:57:10;;;;;;;10.73;5.00;;;10.50;99.90;;;;;;4994749;28;20655;-41
2022/04/15 08:59:40;;;;;;;9.25;4.70;;;9.90;99.90;;;;;;4996081;28;20125;-41
2022/04/15 09:02:06;;;;;;;14.02;6.05;;;12.40;99.90;;;;;;4993430;28;20054;-41
2022/04/15 09:04:32;;;;;;;11.15;4.90;;;10.60;99.90;;;;;;4993921;28;21399;-40
2022/04/15 09:07:00;;;;;;;9.15;3.08;;;12.90;99.90;;;;;;4994445;28;20057;-42
2022/04/15 09:09:30;;;;;;;8.63;4.60;;;11.60;99.90;;;;;;4993870;28;20065;-43
2022/04/15 09:11:58;;;;;;;8.60;4.53;;;11.70;99.90;;;;;;4994348;28;20072;-42
2022/04/15 09:14:24;;;;;;;13.07;4.72;;;12.20;99.90;;;;;;4992867;28;20818;-44
2022/04/15 09:16:50;;;;;;;9.13;4.30;;;13.10;99.90;;;;;;4996269;28;20033;-43
2022/04/15 09:19:17;;;;;;;9.30;4.40;;;13.10;99.90;;;;;;4995674;28;20506;-42
2022/04/15 09:21:51;;;;;;;6.45;3.53;;;13.70;99.90;;;;;;4994934;28;20044;-43
2022/04/15 09:24:17;;;;;;;10.73;4.55;;;15.30;99.90;;;;;;4993350;28;20046;-44
2022/04/15 09:26:46;;;;;;;8.65;4.18;;;13.60;99.90;;;;;;4995626;28;20053;-44
2022/04/15 09:29:14;;;;;;;7.72;4.45;;;12.70;99.90;;;;;;4994652;28;20225;-43
2022/04/15 09:31:39;;;;;;;9.38;4.07;;;12.10;99.90;;;;;;4993937;28;20061;-41
2022/04/15 09:34:07;;;;;;;8.27;4.05;;;12.00;99.90;;;;;;4993512;28;20764;-42
2022/04/15 09:36:36;;;;;;;8.00;4.22;;;11.90;99.90;;;;;;4993791;28;20525;-43
2022/04/15 09:39:10;;;;;;;9.25;3.70;;;11.20;99.90;;;;;;4994172;28;20037;-43
2022/04/15 09:41:40;;;;;;;8.45;4.25;;;11.30;99.90;;;;;;4994128;28;20057;-43
2022/04/15 09:44:11;;;;;;;11.68;4.43;;;11.90;99.90;;;;;;4995273;28;20053;-43
2022/04/15 09:46:36;;;;;;;9.77;4.00;;;12.20;99.90;;;;;;4995553;28;20136;-41
2022/04/15 09:49:06;;;;;;;8.27;4.68;;;12.40;99.90;;;;;;4994468;28;20041;-45
2022/04/15 09:51:43;;;;;;;8.20;4.40;;;12.50;99.90;;;;;;4993437;28;20233;-42
2022/04/15 09:54:19;;;;;;;6.57;4.28;;;12.30;99.90;;;;;;4993033;28;20046;-45
2022/04/15 09:56:46;;;;;;;7.72;4.20;;;12.90;99.90;;;;;;4994514;28;20100;-44
2022/04/15 09:59:15;;;;;;;10.70;4.95;;;12.10;99.90;;;;;;4993456;28;20410;-46
2022/04/15 10:01:45;;;;;;;8.50;4.72;;;11.90;99.90;;;;;;4994635;28;20530;-42
2022/04/15 10:04:17;;;;;;;10.43;5.63;;;12.70;99.90;;;;;;4993040;28;20066;-44
2022/04/15 10:06:45;;;;;;;11.23;5.50;;;12.60;99.90;;;;;;4993917;28;20046;-43
2022/04/15 10:09:14;;;;;;;12.45;5.70;;;10.60;99.90;;;;;;4993228;28;20160;-46
2022/04/15 10:11:42;;;;;;;9.35;4.50;;;11.70;99.90;;;;;;4993113;28;20042;-45
2022/04/15 10:14:09;;;;;;;11.88;5.13;;;11.90;99.90;;;;;;4993233;28;20045;-45
2022/04/15 10:16:37;;;;;;;11.30;5.32;;;11.50;99.90;;;;;;4994666;28;20107;-45
2022/04/15 10:19:02;;;;;;;8.35;5.28;;;12.00;99.90;;;;;;4992477;28;20041;-44
2022/04/15 10:21:32;;;;;;;6.38;3.95;;;12.30;99.90;;;;;;4993949;28;20461;-43
2022/04/15 10:24:01;;;;;;;9.68;5.10;;;13.60;99.90;;;;;;4992468;28;20164;-44
2022/04/15 10:26:32;;;;;;;9.30;3.88;;;14.10;99.90;;;;;;4993774;28;20133;-43
2022/04/15 10:29:03;;;;;;;8.05;4.80;;;13.00;99.90;;;;;;4993929;28;20042;-42
2022/04/15 10:31:37;;;;;;;8.63;5.00;;;12.90;99.90;;;;;;4992676;28;20038;-43
2022/04/15 10:34:19;;;;;;;8.88;5.13;;;14.20;99.90;;;;;;4993216;28;20281;-42
2022/04/15 10:36:50;;;;;;;10.95;4.95;;;12.90;99.90;;;;;;4992787;28;20034;-44
2022/04/15 10:39:19;;;;;;;8.73;4.70;;;12.10;99.90;;;;;;4993248;28;20042;-43
2022/04/15 10:41:45;;;;;;;9.88;5.65;;;11.80;99.90;;;;;;4994036;28;20041;-43
2022/04/15 10:44:35;;;;;;;8.93;5.68;;;11.60;99.90;;;;;;4991791;28;20529;-45
2022/04/15 10:47:25;;;;;;;11.65;5.40;;;10.80;99.90;;;;;;4993184;28;20666;-43
2022/04/15 10:49:58;;;;;;;12.27;4.95;;;11.30;99.90;;;;;;4993199;28;20045;-46
2022/04/15 10:52:25;;;;;;;10.60;5.20;;;11.40;99.90;;;;;;4992377;28;20030;-45
2022/04/15 10:55:12;;;;;;;9.38;4.60;;;11.40;99.90;;;;;;4991453;28;20938;-44
2022/04/15 10:57:43;;;;;;;11.07;4.50;;;13.50;99.90;;;;;;4993772;28;20044;-42
2022/04/15 11:03:26;;;;;;;14.07;4.80;;;11.50;99.90;;;;;;4991511;28;20056;-45
2022/04/15 11:06:04;;;;;;;8.02;4.75;;;12.40;99.90;;;;;;4992364;28;20057;-47
2022/04/15 11:08:48;;;;;;;10.48;4.28;;;11.10;99.90;;;;;;4992752;28;20494;-43
2022/04/15 11:11:18;;;;;;;11.80;5.05;;;11.00;99.90;;;;;;4993015;28;20065;-43
2022/04/15 11:13:44;;;;;;;10.60;5.47;;;11.40;99.90;;;;;;4992616;28;20042;-45
2022/04/15 11:16:13;;;;;;;10.52;4.75;;;11.40;99.90;;;;;;4992287;28;20443;-47
2022/04/15 11:18:58;;;;;;;9.82;5.22;;;11.60;99.90;;;;;;4991949;28;20125;-43
2022/04/15 11:21:32;;;;;;;12.95;5.95;;;13.70;99.90;;;;;;4993229;28;20450;-44
2022/04/15 11:24:05;;;;;;;9.63;5.35;;;13.20;99.90;;;;;;4992025;28;20522;-43
2022/04/15 11:26:32;;;;;;;8.38;5.32;;;11.20;99.90;;;;;;4973602;28;20043;-41
2022/04/15 11:29:00;;;;;;;11.52;5.80;;;11.20;99.90;;;;;;4992971;28;20033;-44
2022/04/15 11:31:34;;;;;;;12.63;5.68;;;11.10;99.90;;;;;;4991465;28;20034;-44
2022/04/15 11:34:04;;;;;;;12.13;5.80;;;11.10;99.90;;;;;;4973613;28;20045;-43
2022/04/15 11:36:38;;;;;;;9.07;5.03;;;11.00;99.90;;;;;;4992672;28;20052;-42
2022/04/15 11:39:08;;;;;;;8.77;5.32;;;11.00;99.90;;;;;;4975459;28;20144;-47
2022/04/15 11:41:33;;;;;;;7.38;4.47;;;12.20;99.90;;;;;;4992285;28;20041;-47
2022/04/15 11:44:06;;;;;;;6.22;4.43;;;11.30;99.90;;;;;;4990884;28;20871;-46
2022/04/15 11:46:43;;;;;;;9.27;5.38;;;11.50;99.90;;;;;;4992629;28;20041;-45
2022/04/15 11:49:23;;;;;;;10.43;5.53;;;11.00;99.90;;;;;;4992584;28;20038;-42
2022/04/15 11:51:56;;;;;;;11.27;4.88;;;11.00;99.90;;;;;;4990954;28;20088;-45
2022/04/15 11:54:24;;;;;;;9.50;5.40;;;11.00;99.90;;;;;;4991368;28;20038;-47
2022/04/15 11:56:57;;;;;;;9.23;5.63;;;11.00;99.90;;;;;;4990611;28;20064;-44
2022/04/15 11:59:24;;;;;;;10.10;4.85;;;11.20;99.90;;;;;;4991052;28;20037;-44
2022/04/15 12:01:50;;;;;;;9.85;5.53;;;11.00;99.90;;;;;;4974206;28;20041;-42
2022/04/15 12:04:20;;;;;;;15.05;5.90;;;9.10;99.90;;;;;;4991767;28;20045;-42
2022/04/15 12:06:46;;;;;;;11.25;5.82;;;10.80;99.90;;;;;;4992014;28;20045;-42
2022/04/15 12:09:14;;;;;;;9.75;5.10;;;10.90;99.90;;;;;;4992012;28;20397;-42
2022/04/15 12:11:41;;;;;;;8.55;5.18;;;11.90;99.90;;;;;;4990523;28;20832;-47
2022/04/15 12:14:07;;;;;;;11.35;4.95;;;11.90;99.90;;;;;;4991566;28;20130;-42
2022/04/15 12:16:39;;;;;;;11.30;5.20;;;10.70;99.90;;;;;;4992225;28;20039;-45
2022/04/15 12:19:07;;;;;;;9.32;5.10;;;10.70;99.90;;;;;;4992692;28;20592;-43
2022/04/15 12:21:34;;;;;;;7.80;4.63;;;10.70;99.90;;;;;;4973349;28;20050;-44
2022/04/15 12:24:18;;;;;;;11.90;5.82;;;10.50;99.90;;;;;;4991586;28;20332;-43
2022/04/15 12:26:48;;;;;;;10.20;4.93;;;10.60;99.90;;;;;;4993424;28;20042;-47
2022/04/15 12:32:34;;;;;;;8.65;5.40;;;10.20;99.90;;;;;;4989979;28;20057;-43
2022/04/15 12:35:00;;;;;;;11.95;5.53;;;10.40;99.90;;;;;;4929062;29;20436;-46
2022/04/15 12:37:47;;;;;;;10.13;4.70;;;11.10;99.90;;;;;;4930566;29;20047;-44
2022/04/15 12:40:14;;;;;;;10.48;5.45;;;10.90;99.90;;;;;;4929822;29;20175;-43
2022/04/15 12:42:41;;;;;;;9.02;5.78;;;11.40;99.90;;;;;;4929740;29;20185;-42
2022/04/15 12:45:11;;;;;;;10.05;5.32;;;10.20;99.90;;;;;;4930626;29;20853;-46
2022/04/15 12:47:40;;;;;;;11.23;5.60;;;10.30;99.90;;;;;;4930753;29;20456;-46
2022/04/15 12:50:25;;;;;;;10.32;5.57;;;10.30;99.90;;;;;;4931821;29;20233;-43
2022/04/15 12:52:53;;;;;;;10.27;6.00;;;11.30;99.90;;;;;;4913298;29;20349;-46
2022/04/15 12:55:29;;;;;;;13.93;6.05;;;10.00;99.90;;;;;;4929540;29;20756;-42
2022/04/15 12:57:56;;;;;;;10.98;6.07;;;10.70;99.90;;;;;;4930640;29;20420;-45
2022/04/15 13:00:22;;;;;;;11.55;5.47;;;11.40;99.90;;;;;;4915458;29;20564;-43
2022/04/15 13:02:48;;;;;;;9.93;5.35;;;12.20;99.90;;;;;;4930255;29;20043;-43